createdAt,value
2022-12-12T00:01:44.756Z,-2.00
2022-12-12T00:04:18.487Z,-2.00
2022-12-12T00:06:53.426Z,-2.00
2022-12-12T00:09:26.701Z,-2.00
2022-12-12T00:12:00.437Z,-2.00
2022-12-12T00:14:33.693Z,-1.90
2022-12-12T00:17:07.404Z,-2.00
2022-12-12T00:19:40.657Z,-2.00
2022-12-12T00:22:15.555Z,-2.00
2022-12-12T00:24:48.899Z,-2.00
2022-12-12T00:27:22.781Z,-1.90
2022-12-12T00:29:56.803Z,-2.00
2022-12-12T00:32:30.546Z,-2.00
2022-12-12T00:35:03.908Z,-2.00
2022-12-12T00:37:39.086Z,-2.00
2022-12-12T00:40:13.703Z,-2.00
2022-12-12T00:42:47.367Z,-2.00
2022-12-12T00:45:20.806Z,-2.00
2022-12-12T00:47:54.068Z,-2.00
2022-12-12T00:50:27.768Z,-2.00
2022-12-12T00:53:02.486Z,-2.00
2022-12-12T00:55:36.289Z,-2.10
2022-12-12T00:58:09.777Z,-2.00
2022-12-12T01:00:43.844Z,-2.10
2022-12-12T01:03:17.498Z,-2.00
2022-12-12T01:05:52.063Z,-2.00
2022-12-12T01:08:27.213Z,-2.00
2022-12-12T01:11:01.314Z,-2.10
2022-12-12T01:13:34.992Z,-2.10
2022-12-12T01:16:09.050Z,-2.00
2022-12-12T01:18:43.294Z,-2.00
2022-12-12T01:21:18.860Z,-2.10
2022-12-12T01:23:53.860Z,-2.00
2022-12-12T01:26:27.152Z,-2.10
2022-12-12T01:29:00.761Z,-2.10
2022-12-12T01:31:34.421Z,-2.10
2022-12-12T01:34:07.745Z,-2.10
2022-12-12T01:36:41.571Z,-2.10
2022-12-12T01:39:16.402Z,-2.10
2022-12-12T01:41:49.675Z,-2.10
2022-12-12T01:44:42.335Z,-2.10
2022-12-12T01:47:17.338Z,-2.00
2022-12-12T01:49:55.648Z,-2.10
2022-12-12T01:52:33.795Z,-2.20
2022-12-12T01:55:13.627Z,-2.20
2022-12-12T01:57:50.373Z,-2.20
2022-12-12T02:00:24.230Z,-2.20
2022-12-12T02:02:57.975Z,-2.20
2022-12-12T02:05:36.086Z,-2.20
2022-12-12T02:08:10.582Z,-2.10
2022-12-12T02:10:47.066Z,-2.10
2022-12-12T02:13:23.794Z,-2.20
2022-12-12T02:16:09.723Z,-2.10
2022-12-12T02:18:51.477Z,-2.20
2022-12-12T02:21:31.112Z,-2.20
2022-12-12T02:24:50.935Z,-2.20
2022-12-12T02:27:52.285Z,-2.20
2022-12-12T02:30:33.773Z,-2.20
2022-12-12T02:33:32.307Z,-2.20
2022-12-12T02:36:13.718Z,-2.20
2022-12-12T02:38:54.762Z,-2.20
2022-12-12T02:41:32.129Z,-2.20
2022-12-12T02:44:15.329Z,-2.10
2022-12-12T02:46:57.186Z,-2.20
2022-12-12T02:49:37.875Z,-2.10
2022-12-12T02:52:12.524Z,-2.10
2022-12-12T02:54:46.059Z,-2.20
2022-12-12T02:57:21.008Z,-2.20
2022-12-12T02:59:58.560Z,-2.10
2022-12-12T03:02:50.427Z,-2.10
2022-12-12T03:06:00.866Z,-2.10
2022-12-12T03:08:49.835Z,-2.10
2022-12-12T03:11:38.162Z,-2.10
2022-12-12T03:14:17.094Z,-2.10
2022-12-12T03:17:01.211Z,-2.00
2022-12-12T03:19:43.458Z,-2.00
2022-12-12T03:22:26.533Z,-2.00
2022-12-12T03:25:06.768Z,-2.10
2022-12-12T03:27:46.316Z,-2.10
2022-12-12T03:30:21.157Z,-2.20
2022-12-12T03:32:59.654Z,-2.20
2022-12-12T03:35:36.035Z,-2.20
2022-12-12T03:38:18.527Z,-2.20
2022-12-12T03:40:55.373Z,-2.20
2022-12-12T03:43:32.173Z,-2.20
2022-12-12T03:46:13.620Z,-2.20
2022-12-12T03:48:51.825Z,-2.20
2022-12-12T03:51:28.536Z,-2.30
2022-12-12T03:54:12.047Z,-2.30
2022-12-12T03:56:50.706Z,-2.30
2022-12-12T03:59:27.840Z,-2.30
2022-12-12T04:02:09.486Z,-2.30
2022-12-12T04:04:48.359Z,-2.30
2022-12-12T04:07:26.391Z,-2.30
2022-12-12T04:10:18.950Z,-2.30
2022-12-12T04:13:03.439Z,-2.30
2022-12-12T04:16:04.010Z,-2.30
2022-12-12T04:18:43.171Z,-2.40
2022-12-12T04:21:45.313Z,-2.40
2022-12-12T04:24:24.592Z,-2.30
2022-12-12T04:27:03.198Z,-2.30
2022-12-12T04:29:42.739Z,-2.30
2022-12-12T04:32:23.090Z,-2.40
2022-12-12T04:35:01.105Z,-2.40
2022-12-12T04:37:40.178Z,-2.40
2022-12-12T04:40:18.274Z,-2.40
2022-12-12T04:43:00.148Z,-2.40
2022-12-12T04:45:37.552Z,-2.40
2022-12-12T04:48:15.313Z,-2.40
2022-12-12T04:50:51.849Z,-2.40
2022-12-12T04:53:31.211Z,-2.40
2022-12-12T04:56:09.585Z,-2.40
2022-12-12T04:58:44.459Z,-2.40
2022-12-12T05:01:23.272Z,-2.40
2022-12-12T05:03:59.962Z,-2.40
2022-12-12T05:06:38.012Z,-2.40
2022-12-12T05:09:13.843Z,-2.40
2022-12-12T05:11:47.123Z,-2.40
2022-12-12T05:14:22.115Z,-2.50
2022-12-12T05:16:59.486Z,-2.50
2022-12-12T05:19:32.951Z,-2.40
2022-12-12T05:22:06.360Z,-2.50
2022-12-12T05:24:39.652Z,-2.50
2022-12-12T05:27:13.931Z,-2.50
2022-12-12T05:29:48.739Z,-2.50
2022-12-12T05:32:22.171Z,-2.50
2022-12-12T05:34:55.442Z,-2.50
2022-12-12T05:37:28.900Z,-2.50
2022-12-12T05:40:02.142Z,-2.50
2022-12-12T05:42:35.835Z,-2.50
2022-12-12T05:45:12.664Z,-2.50
2022-12-12T05:47:46.309Z,-2.50
2022-12-12T05:50:19.626Z,-2.50
2022-12-12T05:52:53.208Z,-2.50
2022-12-12T05:55:26.716Z,-2.50
2022-12-12T05:58:00.181Z,-2.50
2022-12-12T06:00:34.911Z,-2.40
2022-12-12T06:03:08.760Z,-2.40
2022-12-12T06:05:42.219Z,-2.40
2022-12-12T06:08:16.239Z,-2.40
2022-12-12T06:10:51.850Z,-2.40
2022-12-12T06:13:25.309Z,-2.40
2022-12-12T06:16:00.087Z,-2.40
2022-12-12T06:18:33.776Z,-2.40
2022-12-12T06:21:08.872Z,-2.40
2022-12-12T06:23:43.010Z,-2.40
2022-12-12T06:26:18.319Z,-2.40
2022-12-12T06:28:51.676Z,-2.40
2022-12-12T06:31:26.572Z,-2.40
2022-12-12T06:33:59.832Z,-2.40
2022-12-12T06:36:33.999Z,-2.40
2022-12-12T06:39:07.327Z,-2.30
2022-12-12T06:41:41.078Z,-2.30
2022-12-12T06:44:14.592Z,-2.30
2022-12-12T06:46:49.283Z,-2.30
2022-12-12T06:49:22.585Z,-2.30
2022-12-12T06:51:55.841Z,-2.30
2022-12-12T06:54:29.181Z,-2.20
2022-12-12T06:57:02.468Z,-2.20
2022-12-12T06:59:35.789Z,-2.20
2022-12-12T07:02:12.541Z,-2.20
2022-12-12T07:04:45.785Z,-2.20
2022-12-12T07:07:19.086Z,-2.20
2022-12-12T07:09:52.435Z,-2.20
2022-12-12T07:12:25.763Z,-2.20
2022-12-12T07:14:59.086Z,-2.10
2022-12-12T07:17:33.918Z,-2.10
2022-12-12T07:20:08.659Z,-2.10
2022-12-12T07:22:43.039Z,-2.10
2022-12-12T07:25:16.747Z,-2.10
2022-12-12T07:27:50.023Z,-2.00
2022-12-12T07:30:23.282Z,-1.90
2022-12-12T07:32:58.098Z,-1.90
2022-12-12T07:35:31.378Z,-1.90
2022-12-12T07:38:05.975Z,-1.90
2022-12-12T07:40:39.301Z,-1.80
2022-12-12T07:43:12.662Z,-1.80
2022-12-12T07:45:46.196Z,-1.80
2022-12-12T07:48:20.932Z,-1.70
2022-12-12T07:50:54.240Z,-1.70
2022-12-12T07:53:27.699Z,-1.60
2022-12-12T07:56:01.048Z,-1.60
2022-12-12T07:58:34.581Z,-1.60
2022-12-12T08:01:14.993Z,-1.50
2022-12-12T08:03:50.609Z,-1.50
2022-12-12T08:06:24.766Z,-1.50
2022-12-12T08:08:58.195Z,-1.50
2022-12-12T08:11:31.557Z,-1.50
2022-12-12T08:14:12.920Z,-1.50
2022-12-12T08:16:46.672Z,-1.50
2022-12-12T08:19:21.667Z,-1.50
2022-12-12T08:21:55.227Z,-1.50
2022-12-12T08:24:29.995Z,-1.50
2022-12-12T08:27:03.290Z,-1.50
2022-12-12T08:29:36.573Z,-1.50
2022-12-12T08:32:09.879Z,-1.50
2022-12-12T08:34:44.489Z,-1.50
2022-12-12T08:37:17.762Z,-1.50
2022-12-12T08:39:55.454Z,-1.60
2022-12-12T08:42:29.103Z,-1.60
2022-12-12T08:45:03.911Z,-1.60
2022-12-12T08:47:37.310Z,-1.60
2022-12-12T08:50:13.225Z,-1.50
2022-12-12T08:52:46.478Z,-1.50
2022-12-12T08:55:20.266Z,-1.50
2022-12-12T08:57:53.568Z,-1.50
2022-12-12T09:00:26.863Z,-1.40
2022-12-12T09:03:00.239Z,-1.40
2022-12-12T09:05:35.271Z,-1.30
2022-12-12T09:08:08.709Z,-1.20
2022-12-12T09:10:42.993Z,-1.00
2022-12-12T09:13:16.270Z,-0.90
2022-12-12T09:15:52.287Z,-0.80
2022-12-12T09:18:25.948Z,-0.70
2022-12-12T09:21:01.123Z,-0.60
2022-12-12T09:23:34.680Z,-0.50
2022-12-12T09:26:09.544Z,-0.30
2022-12-12T09:28:42.859Z,-0.20
2022-12-12T09:31:16.617Z,-0.20
2022-12-12T09:33:50.551Z,-0.20
2022-12-12T09:36:25.241Z,-0.10
2022-12-12T09:38:58.569Z,-0.10
2022-12-12T09:41:32.204Z,-0.20
2022-12-12T09:44:09.456Z,-0.30
2022-12-12T09:46:46.899Z,-0.40
2022-12-12T09:49:27.592Z,-0.40
2022-12-12T09:52:04.022Z,-0.60
2022-12-12T09:54:37.863Z,-0.50
2022-12-12T09:57:25.707Z,-0.60
2022-12-12T10:00:04.607Z,-0.50
2022-12-12T10:02:56.915Z,-0.50
2022-12-12T10:05:39.174Z,-0.50
2022-12-12T10:08:21.124Z,-0.50
2022-12-12T10:10:59.297Z,-0.40
2022-12-12T10:13:35.577Z,-0.30
2022-12-12T10:16:12.868Z,-0.30
2022-12-12T10:18:50.208Z,-0.20
2022-12-12T10:21:27.441Z,-0.10
2022-12-12T10:24:06.131Z,0.00
2022-12-12T10:26:42.896Z,0.00
2022-12-12T10:29:19.379Z,0.10
2022-12-12T10:31:58.408Z,0.00
2022-12-12T10:34:45.837Z,0.10
2022-12-12T10:37:32.673Z,0.10
2022-12-12T10:40:23.782Z,0.10
2022-12-12T10:43:03.620Z,0.10
2022-12-12T10:45:48.911Z,0.10
2022-12-12T10:48:23.379Z,0.00
2022-12-12T10:51:01.855Z,0.10
2022-12-12T10:53:35.701Z,0.00
2022-12-12T10:56:13.449Z,0.00
2022-12-12T10:58:53.952Z,-0.10
2022-12-12T11:04:25.571Z,0.00
2022-12-12T11:06:58.946Z,-0.10
2022-12-12T11:09:32.180Z,-0.20
2022-12-12T11:12:17.152Z,-0.10
2022-12-12T11:14:52.023Z,-0.10
2022-12-12T11:17:28.322Z,-0.10
2022-12-12T11:20:04.136Z,0.00
2022-12-12T11:22:40.508Z,-0.10
2022-12-12T11:25:25.421Z,0.00
2022-12-12T11:28:06.713Z,0.00
2022-12-12T11:30:44.373Z,0.00
2022-12-12T11:33:21.046Z,0.00
2022-12-12T11:35:56.880Z,0.00
2022-12-12T11:38:36.771Z,-0.10
2022-12-12T11:41:11.823Z,0.00
2022-12-12T11:44:05.900Z,0.00
2022-12-12T11:46:39.240Z,-0.10
2022-12-12T11:49:20.460Z,-0.10
2022-12-12T11:51:53.741Z,-0.10
2022-12-12T11:54:32.236Z,0.00
2022-12-12T11:57:11.455Z,0.00
2022-12-12T12:00:03.620Z,0.00
2022-12-12T12:03:17.273Z,0.00
2022-12-12T12:06:06.029Z,0.00
2022-12-12T12:08:51.819Z,-0.10
2022-12-12T12:11:31.097Z,-0.20
2022-12-12T12:14:17.601Z,-0.10
2022-12-12T12:16:59.480Z,-0.10
2022-12-12T12:19:40.897Z,-0.10
2022-12-12T12:22:26.669Z,-0.10
2022-12-12T12:25:20.352Z,-0.10
2022-12-12T12:28:04.081Z,-0.10
2022-12-12T12:30:51.997Z,0.00
2022-12-12T12:33:42.099Z,0.00
2022-12-12T12:36:22.767Z,0.00
2022-12-12T12:39:10.508Z,0.00
2022-12-12T12:41:59.528Z,0.00
2022-12-12T12:44:44.402Z,0.10
2022-12-12T12:47:26.733Z,0.00
2022-12-12T12:50:06.935Z,0.10
2022-12-12T12:52:44.736Z,0.10
2022-12-12T12:55:22.506Z,0.00
2022-12-12T12:57:55.833Z,0.00
2022-12-12T13:00:31.451Z,0.00
2022-12-12T13:03:10.037Z,0.00
2022-12-12T13:05:47.530Z,0.00
2022-12-12T13:08:27.686Z,-0.10
2022-12-12T13:11:07.869Z,-0.10
2022-12-12T13:13:43.070Z,-0.10
2022-12-12T13:16:19.944Z,-0.20
2022-12-12T13:19:07.154Z,-0.20
2022-12-12T13:21:49.842Z,-0.40
2022-12-12T13:24:27.331Z,-0.40
2022-12-12T13:27:07.094Z,-0.40
2022-12-12T13:29:47.158Z,-0.40
2022-12-12T13:32:56.735Z,-0.40
2022-12-12T13:35:32.967Z,-0.40
2022-12-12T13:38:15.873Z,-0.30
2022-12-12T13:40:57.976Z,-0.40
2022-12-12T13:43:45.927Z,-0.50
2022-12-12T13:46:38.602Z,-0.50
2022-12-12T13:49:41.657Z,-0.60
2022-12-12T13:52:28.004Z,-0.50
2022-12-12T13:55:23.977Z,-0.50
2022-12-12T13:58:33.206Z,-0.50
2022-12-12T14:01:33.201Z,-0.50
2022-12-12T14:04:06.981Z,-0.60
2022-12-12T14:06:40.322Z,-0.70
2022-12-12T14:09:22.170Z,-0.80
2022-12-12T14:12:04.927Z,-0.80
2022-12-12T14:14:38.310Z,-0.80
2022-12-12T14:17:21.375Z,-0.80
2022-12-12T14:19:57.176Z,-0.80
2022-12-12T14:23:17.262Z,-0.80
2022-12-12T14:25:50.561Z,-0.80
2022-12-12T14:28:27.583Z,-0.80
2022-12-12T14:31:14.770Z,-0.80
2022-12-12T14:34:00.906Z,-0.80
2022-12-12T14:37:09.967Z,-0.80
2022-12-12T14:39:53.177Z,-0.80
2022-12-12T14:43:20.624Z,-0.80
2022-12-12T14:45:38.678Z,-0.80
2022-12-12T14:48:19.608Z,-0.90
2022-12-12T14:50:57.345Z,-0.90
2022-12-12T14:53:34.487Z,-0.90
2022-12-12T14:56:11.135Z,-0.90
2022-12-12T14:58:47.905Z,-0.90
2022-12-12T15:01:31.917Z,-0.90
2022-12-12T15:04:08.938Z,-0.90
2022-12-12T15:06:43.171Z,-1.00
2022-12-12T15:09:20.344Z,-0.90
2022-12-12T15:11:55.396Z,-1.00
2022-12-12T15:14:29.733Z,-1.00
2022-12-12T15:17:07.756Z,-0.90
2022-12-12T15:19:43.262Z,-0.90
2022-12-12T15:22:23.443Z,-0.90
2022-12-12T15:24:59.129Z,-1.00
2022-12-12T15:27:38.586Z,-0.90
2022-12-12T15:30:23.583Z,-1.00
2022-12-12T15:33:00.142Z,-1.00
2022-12-12T15:35:33.640Z,-1.00
2022-12-12T15:38:13.495Z,-1.00
2022-12-12T15:40:51.162Z,-1.00
2022-12-12T15:43:26.927Z,-1.00
2022-12-12T15:46:02.653Z,-1.00
2022-12-12T15:48:37.411Z,-1.00
2022-12-12T15:51:11.904Z,-1.00
2022-12-12T15:53:50.143Z,-1.10
2022-12-12T15:56:26.348Z,-1.10
2022-12-12T15:59:15.433Z,-1.10
2022-12-12T16:01:48.818Z,-1.10
2022-12-12T16:04:26.222Z,-1.10
2022-12-12T16:07:16.383Z,-1.10
2022-12-12T16:10:00.569Z,-1.20
2022-12-12T16:12:56.322Z,-1.20
2022-12-12T16:15:33.121Z,-1.20
2022-12-12T16:18:15.935Z,-1.20
2022-12-12T16:20:53.534Z,-1.20
2022-12-12T16:23:30.442Z,-1.20
2022-12-12T16:26:03.799Z,-1.10
2022-12-12T16:28:37.212Z,-1.10
2022-12-12T16:31:16.919Z,-1.20
2022-12-12T16:33:50.435Z,-1.20
2022-12-12T16:36:25.171Z,-1.20
2022-12-12T16:38:58.459Z,-1.10
2022-12-12T16:41:32.041Z,-1.20
2022-12-12T16:44:05.378Z,-1.10
2022-12-12T16:46:38.698Z,-1.20
2022-12-12T16:49:15.352Z,-1.10
2022-12-12T16:51:50.396Z,-1.20
2022-12-12T16:54:23.706Z,-1.20
2022-12-12T16:56:57.053Z,-1.20
2022-12-12T16:59:30.401Z,-1.20
2022-12-12T17:02:04.018Z,-1.20
2022-12-12T17:04:37.291Z,-1.20
2022-12-12T17:07:11.980Z,-1.20
2022-12-12T17:09:45.348Z,-1.20
2022-12-12T17:12:18.938Z,-1.20
2022-12-12T17:14:52.280Z,-1.30
2022-12-12T17:17:25.670Z,-1.40
2022-12-12T17:19:59.433Z,-1.50
2022-12-12T17:22:34.182Z,-1.50
2022-12-12T17:25:08.928Z,-1.50
2022-12-12T17:27:43.082Z,-1.60
2022-12-12T17:30:17.147Z,-1.60
2022-12-12T17:35:41.875Z,-1.70
2022-12-12T17:38:16.765Z,-1.70
2022-12-12T17:40:53.863Z,-1.70
2022-12-12T17:43:27.271Z,-1.70
2022-12-12T17:46:01.914Z,-1.70
2022-12-12T17:48:37.845Z,-1.60
2022-12-12T17:51:13.528Z,-1.70
2022-12-12T17:53:51.130Z,-1.70
2022-12-12T17:56:27.504Z,-1.70
2022-12-12T17:59:05.965Z,-1.70
2022-12-12T18:01:39.283Z,-1.70
2022-12-12T18:04:12.662Z,-1.70
2022-12-12T18:06:45.935Z,-1.70
2022-12-12T18:09:21.042Z,-1.70
2022-12-12T18:11:54.445Z,-1.80
2022-12-12T18:14:27.813Z,-1.80
2022-12-12T18:17:01.283Z,-1.90
2022-12-12T18:19:34.877Z,-1.90
2022-12-12T18:22:08.235Z,-1.90
2022-12-12T18:24:42.986Z,-1.90
2022-12-12T18:27:16.583Z,-1.90
2022-12-12T18:29:50.024Z,-1.90
2022-12-12T18:32:23.428Z,-1.90
2022-12-12T18:34:56.705Z,-1.90
2022-12-12T18:37:30.097Z,-1.90
2022-12-12T18:40:07.117Z,-1.90
2022-12-12T18:42:40.407Z,-1.90
2022-12-12T18:45:14.053Z,-1.90
2022-12-12T18:47:47.716Z,-1.90
2022-12-12T18:50:20.975Z,-1.90
2022-12-12T18:52:54.290Z,-1.90
2022-12-12T18:55:30.392Z,-1.90
2022-12-12T18:58:04.035Z,-1.90
2022-12-12T19:00:40.144Z,-1.90
2022-12-12T19:03:13.392Z,-1.90
2022-12-12T19:05:46.763Z,-2.00
2022-12-12T19:08:20.297Z,-1.90
2022-12-12T19:10:55.075Z,-1.90
2022-12-12T19:13:28.529Z,-1.90
2022-12-12T19:16:05.230Z,-1.90
2022-12-12T19:18:39.171Z,-1.80
2022-12-12T19:21:14.604Z,-1.90
2022-12-12T19:23:48.887Z,-1.90
2022-12-12T19:26:27.001Z,-1.90
2022-12-12T19:29:01.984Z,-1.80
2022-12-12T19:31:36.199Z,-1.80
2022-12-12T19:34:11.937Z,-1.90
2022-12-12T19:36:45.444Z,-1.90
2022-12-12T19:39:18.840Z,-1.90
2022-12-12T19:41:53.511Z,-1.90
2022-12-12T19:44:26.938Z,-1.90
2022-12-12T19:47:00.280Z,-1.90
2022-12-12T19:49:34.102Z,-1.90
2022-12-12T19:52:13.688Z,-1.90
2022-12-12T19:54:47.865Z,-1.90
2022-12-12T19:57:26.264Z,-1.90
2022-12-12T19:59:59.579Z,-1.90
2022-12-12T20:02:33.215Z,-1.90
2022-12-12T20:05:06.976Z,-1.90
2022-12-12T20:07:40.407Z,-1.90
2022-12-12T20:10:14.124Z,-1.90
2022-12-12T20:12:57.985Z,-1.90
2022-12-12T20:15:31.967Z,-1.90
2022-12-12T20:18:05.459Z,-1.90
2022-12-12T20:20:38.733Z,-1.90
2022-12-12T20:23:12.014Z,-1.90
2022-12-12T20:25:45.321Z,-2.00
2022-12-12T20:28:20.019Z,-1.90
2022-12-12T20:31:04.243Z,-1.90
2022-12-12T20:33:38.915Z,-1.90
2022-12-12T20:36:15.252Z,-1.90
2022-12-12T20:38:49.619Z,-1.90
2022-12-12T20:41:25.678Z,-1.90
2022-12-12T20:44:01.062Z,-1.90
2022-12-12T20:46:36.090Z,-1.90
2022-12-12T20:49:10.966Z,-1.90
2022-12-12T20:51:59.905Z,-1.90
2022-12-12T20:54:33.204Z,-1.90
2022-12-12T20:57:06.447Z,-1.90
2022-12-12T20:59:41.149Z,-1.80
2022-12-12T21:02:14.890Z,-1.90
2022-12-12T21:04:48.175Z,-1.90
2022-12-12T21:07:21.582Z,-1.90
2022-12-12T21:09:54.844Z,-1.90
2022-12-12T21:12:28.465Z,-1.90
2022-12-12T21:15:03.399Z,-1.90
2022-12-12T21:17:36.773Z,-1.90
2022-12-12T21:20:10.673Z,-1.90
2022-12-12T21:22:44.010Z,-1.90
2022-12-12T21:25:17.462Z,-1.90
2022-12-12T21:27:50.822Z,-1.90
2022-12-12T21:30:25.533Z,-1.90
2022-12-12T21:32:58.831Z,-1.90
2022-12-12T21:35:32.191Z,-1.90
2022-12-12T21:38:05.703Z,-1.90
2022-12-12T21:40:39.049Z,-1.90
2022-12-12T21:43:12.341Z,-1.90
2022-12-12T21:45:47.000Z,-1.90
2022-12-12T21:48:20.313Z,-1.90
2022-12-12T21:50:55.314Z,-1.90
2022-12-12T21:53:35.186Z,-1.90
2022-12-12T21:56:10.441Z,-1.90
2022-12-12T21:58:45.814Z,-1.90
2022-12-12T22:01:21.890Z,-1.90
2022-12-12T22:03:55.932Z,-1.90
2022-12-12T22:06:31.806Z,-1.90
2022-12-12T22:09:06.723Z,-1.90
2022-12-12T22:11:49.991Z,-1.90
2022-12-12T22:14:24.149Z,-1.90
2022-12-12T22:16:58.844Z,-1.90
2022-12-12T22:19:32.352Z,-1.90
2022-12-12T22:22:05.604Z,-1.90
2022-12-12T22:24:38.868Z,-1.90
2022-12-12T22:27:12.125Z,-1.90
2022-12-12T22:29:45.417Z,-1.90
2022-12-12T22:32:20.111Z,-1.90
2022-12-12T22:34:54.335Z,-1.90
2022-12-12T22:37:27.591Z,-1.90
2022-12-12T22:40:01.703Z,-1.90
2022-12-12T22:42:34.972Z,-1.90
2022-12-12T22:45:09.062Z,-1.90
2022-12-12T22:47:43.703Z,-1.90
2022-12-12T22:50:17.039Z,-1.90
2022-12-12T22:52:50.292Z,-1.90
2022-12-12T22:55:23.651Z,-1.90
2022-12-12T22:57:56.997Z,-1.80
2022-12-12T23:00:30.360Z,-1.80
2022-12-12T23:03:05.185Z,-1.80
2022-12-12T23:05:38.847Z,-1.80
2022-12-12T23:08:12.369Z,-1.80
2022-12-12T23:10:45.894Z,-1.80
2022-12-12T23:13:19.199Z,-1.80
2022-12-12T23:15:52.659Z,-1.80
2022-12-12T23:18:27.525Z,-1.70
2022-12-12T23:21:00.864Z,-1.80
2022-12-12T23:23:35.185Z,-1.70
2022-12-12T23:26:11.300Z,-1.70
2022-12-12T23:28:45.591Z,-1.70
2022-12-12T23:31:22.012Z,-1.70
2022-12-12T23:33:59.112Z,-1.70
2022-12-12T23:36:32.784Z,-1.60
2022-12-12T23:39:07.997Z,-1.60
2022-12-12T23:41:42.106Z,-1.60
2022-12-12T23:44:17.915Z,-1.70
2022-12-12T23:46:52.091Z,-1.70
2022-12-12T23:49:27.588Z,-1.70
2022-12-12T23:52:02.451Z,-1.70
2022-12-12T23:54:36.138Z,-1.70
2022-12-12T23:57:09.906Z,-1.70
2022-12-12T23:59:43.966Z,-1.70
